createdAt,value
2022-12-03T00:00:17.890Z,14.90
2022-12-03T00:02:46.265Z,14.90
2022-12-03T00:05:16.111Z,14.90
2022-12-03T00:07:44.437Z,14.90
2022-12-03T00:10:13.725Z,14.90
2022-12-03T00:12:42.062Z,14.90
2022-12-03T00:15:12.020Z,14.90
2022-12-03T00:17:40.425Z,14.90
2022-12-03T00:20:11.566Z,14.90
2022-12-03T00:22:41.257Z,14.90
2022-12-03T00:25:10.662Z,14.80
2022-12-03T00:27:39.063Z,14.90
2022-12-03T00:30:09.902Z,14.80
2022-12-03T00:32:38.164Z,14.80
2022-12-03T00:35:07.465Z,14.80
2022-12-03T00:37:36.000Z,14.80
2022-12-03T00:40:06.835Z,14.80
2022-12-03T00:42:35.290Z,14.70
2022-12-03T00:45:03.663Z,14.70
2022-12-03T00:47:32.031Z,14.70
2022-12-03T00:50:00.250Z,14.70
2022-12-03T00:52:28.542Z,14.70
2022-12-03T00:54:56.828Z,14.70
2022-12-03T00:57:26.623Z,14.70
2022-12-03T00:59:54.927Z,14.70
2022-12-03T01:02:23.394Z,14.70
2022-12-03T01:04:52.556Z,14.70
2022-12-03T01:07:21.100Z,14.60
2022-12-03T01:09:49.365Z,14.60
2022-12-03T01:12:17.637Z,14.60
2022-12-03T01:14:47.908Z,14.60
2022-12-03T01:17:16.270Z,14.60
2022-12-03T01:19:48.243Z,14.60
2022-12-03T01:22:16.919Z,14.60
2022-12-03T01:24:45.467Z,14.60
2022-12-03T01:27:13.810Z,14.60
2022-12-03T01:29:42.075Z,14.60
2022-12-03T01:32:17.351Z,14.60
2022-12-03T01:34:46.339Z,14.50
2022-12-03T01:37:15.307Z,14.50
2022-12-03T01:39:43.872Z,14.50
2022-12-03T01:42:18.440Z,14.50
2022-12-03T01:44:47.455Z,14.50
2022-12-03T01:47:19.719Z,14.50
2022-12-03T01:49:52.097Z,14.50
2022-12-03T01:52:22.787Z,14.50
2022-12-03T01:54:54.927Z,14.40
2022-12-03T01:57:26.114Z,14.40
2022-12-03T01:59:56.787Z,14.40
2022-12-03T02:02:29.712Z,14.40
2022-12-03T02:04:58.637Z,14.40
2022-12-03T02:07:28.112Z,14.40
2022-12-03T02:09:58.954Z,14.40
2022-12-03T02:12:32.227Z,14.40
2022-12-03T02:15:01.140Z,14.40
2022-12-03T02:17:30.914Z,14.40
2022-12-03T02:20:00.215Z,14.40
2022-12-03T02:22:35.632Z,14.30
2022-12-03T02:25:24.503Z,14.40
2022-12-03T02:27:54.395Z,14.30
2022-12-03T02:30:25.947Z,14.40
2022-12-03T02:32:55.398Z,14.30
2022-12-03T02:35:26.445Z,14.40
2022-12-03T02:38:00.383Z,14.40
2022-12-03T02:40:33.888Z,14.30
2022-12-03T02:43:03.733Z,14.30
2022-12-03T02:45:35.567Z,14.30
2022-12-03T02:48:07.679Z,14.30
2022-12-03T02:50:41.158Z,14.30
2022-12-03T02:53:13.498Z,14.30
2022-12-03T02:55:43.671Z,14.30
2022-12-03T02:58:12.910Z,14.30
2022-12-03T03:00:42.430Z,14.30
2022-12-03T03:03:11.331Z,14.20
2022-12-03T03:05:41.763Z,14.30
2022-12-03T03:08:11.541Z,14.30
2022-12-03T03:10:41.840Z,14.30
2022-12-03T03:13:14.079Z,14.20
2022-12-03T03:15:43.687Z,14.20
2022-12-03T03:18:13.741Z,14.20
2022-12-03T03:20:42.912Z,14.20
2022-12-03T03:23:17.724Z,14.20
2022-12-03T03:25:48.797Z,14.20
2022-12-03T03:28:19.061Z,14.20
2022-12-03T03:30:48.044Z,14.20
2022-12-03T03:33:17.457Z,14.20
2022-12-03T03:35:46.500Z,14.20
2022-12-03T03:38:15.336Z,14.20
2022-12-03T03:40:44.500Z,14.30
2022-12-03T03:43:14.057Z,14.20
2022-12-03T03:45:44.876Z,14.30
2022-12-03T03:48:14.344Z,14.30
2022-12-03T03:50:43.761Z,14.30
2022-12-03T03:53:13.636Z,14.30
2022-12-03T03:55:42.667Z,14.30
2022-12-03T03:58:11.106Z,14.30
2022-12-03T04:00:39.448Z,14.30
2022-12-03T04:03:09.144Z,14.30
2022-12-03T04:05:37.517Z,14.30
2022-12-03T04:08:06.336Z,14.30
2022-12-03T04:10:52.164Z,14.30
2022-12-03T04:13:20.614Z,14.20
2022-12-03T04:15:48.896Z,14.20
2022-12-03T04:18:35.875Z,14.20
2022-12-03T04:21:21.414Z,14.20
2022-12-03T04:23:49.761Z,14.20
2022-12-03T04:26:35.501Z,14.20
2022-12-03T04:29:03.867Z,14.20
2022-12-03T04:31:49.725Z,14.10
2022-12-03T04:34:36.839Z,14.20
2022-12-03T04:37:05.800Z,14.20
2022-12-03T04:39:34.290Z,14.10
2022-12-03T04:42:02.832Z,14.10
2022-12-03T04:44:37.453Z,14.20
2022-12-03T04:47:08.908Z,14.10
2022-12-03T04:49:40.993Z,14.20
2022-12-03T04:52:09.777Z,14.10
2022-12-03T04:54:39.544Z,14.10
2022-12-03T04:57:09.038Z,14.10
2022-12-03T04:59:37.813Z,14.10
2022-12-03T05:02:06.928Z,14.10
2022-12-03T05:04:35.687Z,14.10
2022-12-03T05:07:05.463Z,14.10
2022-12-03T05:09:33.858Z,14.10
2022-12-03T05:12:02.216Z,14.10
2022-12-03T05:14:30.575Z,14.10
2022-12-03T05:16:58.934Z,14.10
2022-12-03T05:19:47.199Z,14.10
2022-12-03T05:22:15.914Z,14.10
2022-12-03T05:24:44.255Z,14.10
2022-12-03T05:27:12.549Z,14.10
2022-12-03T05:29:40.762Z,14.00
2022-12-03T05:32:09.058Z,14.10
2022-12-03T05:34:37.359Z,14.00
2022-12-03T05:37:05.859Z,14.00
2022-12-03T05:39:35.614Z,14.10
2022-12-03T05:42:21.340Z,14.00
2022-12-03T05:44:49.630Z,14.10
2022-12-03T05:47:18.003Z,14.10
2022-12-03T05:49:46.381Z,14.10
2022-12-03T05:52:14.719Z,14.10
2022-12-03T05:54:44.381Z,14.10
2022-12-03T05:57:12.762Z,14.10
2022-12-03T05:59:41.048Z,14.10
2022-12-03T06:02:09.433Z,14.10
2022-12-03T06:04:37.753Z,14.00
2022-12-03T06:07:09.718Z,14.10
2022-12-03T06:09:43.508Z,14.10
2022-12-03T06:12:11.846Z,14.00
2022-12-03T06:14:40.133Z,14.10
2022-12-03T06:17:08.542Z,14.00
2022-12-03T06:19:36.831Z,14.00
2022-12-03T06:22:05.105Z,14.00
2022-12-03T06:24:33.451Z,14.00
2022-12-03T06:27:03.160Z,14.00
2022-12-03T06:29:31.481Z,14.00
2022-12-03T06:31:59.916Z,14.00
2022-12-03T06:34:28.309Z,14.00
2022-12-03T06:36:56.668Z,14.00
2022-12-03T06:39:25.011Z,14.00
2022-12-03T06:41:53.337Z,14.00
2022-12-03T06:44:23.049Z,14.00
2022-12-03T06:46:51.525Z,14.00
2022-12-03T06:49:19.832Z,14.00
2022-12-03T06:51:48.121Z,14.00
2022-12-03T06:54:16.473Z,14.00
2022-12-03T06:56:45.828Z,14.00
2022-12-03T06:59:14.425Z,14.00
2022-12-03T07:01:44.417Z,14.00
2022-12-03T07:04:12.797Z,14.00
2022-12-03T07:06:41.119Z,14.00
2022-12-03T07:09:09.395Z,14.00
2022-12-03T07:11:41.061Z,14.00
2022-12-03T07:14:11.402Z,14.00
2022-12-03T07:16:43.405Z,14.00
2022-12-03T07:19:13.583Z,14.00
2022-12-03T07:21:42.103Z,14.10
2022-12-03T07:24:10.409Z,14.10
2022-12-03T07:26:38.692Z,14.00
2022-12-03T07:29:07.186Z,14.00
2022-12-03T07:31:35.584Z,14.00
2022-12-03T07:34:04.006Z,14.00
2022-12-03T07:36:33.905Z,14.00
2022-12-03T07:39:02.215Z,14.10
2022-12-03T07:41:30.633Z,14.10
2022-12-03T07:43:58.952Z,14.10
2022-12-03T07:46:27.593Z,14.10
2022-12-03T07:48:55.954Z,14.10
2022-12-03T07:51:28.835Z,14.10
2022-12-03T07:54:01.786Z,14.10
2022-12-03T07:56:30.234Z,14.10
2022-12-03T07:58:58.615Z,14.20
2022-12-03T08:01:27.022Z,14.20
2022-12-03T08:03:55.394Z,14.20
2022-12-03T08:06:24.469Z,14.20
2022-12-03T08:08:52.735Z,14.20
2022-12-03T08:11:22.476Z,14.20
2022-12-03T08:13:50.775Z,14.20
2022-12-03T08:16:20.817Z,14.20
2022-12-03T08:18:50.967Z,14.20
2022-12-03T08:21:21.562Z,14.20
2022-12-03T08:23:50.123Z,14.30
2022-12-03T08:26:24.732Z,14.30
2022-12-03T08:28:53.509Z,14.30
2022-12-03T08:31:29.341Z,14.30
2022-12-03T08:34:14.974Z,14.30
2022-12-03T08:36:43.361Z,14.30
2022-12-03T08:39:35.157Z,14.30
2022-12-03T08:42:31.056Z,14.30
2022-12-03T08:45:11.179Z,14.30
2022-12-03T08:47:40.472Z,14.40
2022-12-03T08:50:26.890Z,14.40
2022-12-03T08:52:59.190Z,14.40
2022-12-03T08:55:35.254Z,14.40
2022-12-03T08:58:15.768Z,14.40
2022-12-03T09:00:44.583Z,14.40
2022-12-03T09:03:19.812Z,14.40
2022-12-03T09:05:48.187Z,14.50
2022-12-03T09:08:16.542Z,14.40
2022-12-03T09:10:45.514Z,14.40
2022-12-03T09:13:15.124Z,14.50
2022-12-03T09:15:43.496Z,14.50
2022-12-03T09:18:11.853Z,14.50
2022-12-03T09:20:40.480Z,14.50
2022-12-03T09:23:09.158Z,14.50
2022-12-03T09:25:37.466Z,14.40
2022-12-03T09:28:05.959Z,14.50
2022-12-03T09:30:50.837Z,14.50
2022-12-03T09:33:19.243Z,14.50
2022-12-03T09:35:47.572Z,14.60
2022-12-03T09:38:15.887Z,14.50
2022-12-03T09:40:44.234Z,14.50
2022-12-03T09:43:13.494Z,14.60
2022-12-03T09:45:42.439Z,14.60
2022-12-03T09:48:15.297Z,14.60
2022-12-03T09:50:44.231Z,14.60
2022-12-03T09:53:16.982Z,14.50
2022-12-03T09:55:46.879Z,14.60
2022-12-03T09:58:16.868Z,14.60
2022-12-03T10:00:50.591Z,14.60
2022-12-03T10:03:29.493Z,14.60
2022-12-03T10:05:59.067Z,14.70
2022-12-03T10:08:32.174Z,14.70
2022-12-03T10:11:00.894Z,14.70
2022-12-03T10:13:32.172Z,14.70
2022-12-03T10:16:02.144Z,14.70
2022-12-03T10:18:41.207Z,14.70
2022-12-03T10:21:18.952Z,14.80
2022-12-03T10:23:54.931Z,14.80
2022-12-03T10:26:40.129Z,14.80
2022-12-03T10:29:13.558Z,14.80
2022-12-03T10:31:42.392Z,14.80
2022-12-03T10:34:12.817Z,14.80
2022-12-03T10:36:41.095Z,14.80
2022-12-03T10:39:14.508Z,14.90
2022-12-03T10:41:44.636Z,14.90
2022-12-03T10:44:16.796Z,14.90
2022-12-03T10:46:45.752Z,14.90
2022-12-03T10:49:20.417Z,14.90
2022-12-03T10:51:49.714Z,14.90
2022-12-03T10:54:22.183Z,15.00
2022-12-03T10:56:52.501Z,15.00
2022-12-03T10:59:23.979Z,15.00
2022-12-03T11:01:53.302Z,15.00
2022-12-03T11:04:26.276Z,15.00
2022-12-03T11:06:54.544Z,15.00
2022-12-03T11:09:26.356Z,15.10
2022-12-03T11:11:55.345Z,15.00
2022-12-03T11:15:06.304Z,15.10
2022-12-03T11:17:50.115Z,15.00
2022-12-03T11:21:10.303Z,15.00
2022-12-03T11:24:27.194Z,15.10
2022-12-03T11:27:22.513Z,15.10
2022-12-03T11:29:59.757Z,15.10
2022-12-03T11:33:10.248Z,15.10
2022-12-03T11:35:54.609Z,15.10
2022-12-03T11:38:52.290Z,15.10
2022-12-03T11:41:25.038Z,15.10
2022-12-03T11:44:27.370Z,15.10
2022-12-03T11:47:02.075Z,15.10
2022-12-03T11:49:47.993Z,15.10
2022-12-03T11:52:33.537Z,15.20
2022-12-03T11:55:06.853Z,15.10
2022-12-03T11:57:38.218Z,15.10
2022-12-03T12:00:16.744Z,15.20
2022-12-03T12:02:46.803Z,15.20
2022-12-03T12:05:25.070Z,15.10
2022-12-03T12:07:54.040Z,15.20
2022-12-03T12:10:44.343Z,15.20
2022-12-03T12:13:52.263Z,15.10
2022-12-03T12:16:41.052Z,15.20
2022-12-03T12:19:40.072Z,15.10
2022-12-03T12:22:32.108Z,15.20
2022-12-03T12:25:02.637Z,15.20
2022-12-03T12:27:34.314Z,15.20
2022-12-03T12:30:04.898Z,15.20
2022-12-03T12:32:35.074Z,15.20
2022-12-03T12:35:16.637Z,15.20
2022-12-03T12:37:56.822Z,15.20
2022-12-03T12:40:29.114Z,15.20
2022-12-03T12:43:00.006Z,15.20
2022-12-03T12:45:30.492Z,15.20
2022-12-03T12:48:06.747Z,15.20
2022-12-03T12:50:36.721Z,15.20
2022-12-03T12:53:12.564Z,15.20
2022-12-03T12:55:41.487Z,15.20
2022-12-03T12:58:16.089Z,15.20
2022-12-03T13:00:47.691Z,15.20
2022-12-03T13:03:19.324Z,15.20
2022-12-03T13:05:51.045Z,15.20
2022-12-03T13:08:23.632Z,15.30
2022-12-03T13:10:53.069Z,15.20
2022-12-03T13:13:27.468Z,15.30
2022-12-03T13:16:02.185Z,15.30
2022-12-03T13:18:39.780Z,15.20
2022-12-03T13:21:29.352Z,15.30
2022-12-03T13:23:59.188Z,15.30
2022-12-03T13:26:38.743Z,15.30
2022-12-03T13:29:14.796Z,15.30
2022-12-03T13:31:46.610Z,15.30
2022-12-03T13:34:22.344Z,15.30
2022-12-03T13:36:58.143Z,15.30
2022-12-03T13:39:32.396Z,15.30
2022-12-03T13:42:42.391Z,15.30
2022-12-03T13:45:31.976Z,15.30
2022-12-03T13:48:02.917Z,15.30
2022-12-03T13:50:35.455Z,15.30
2022-12-03T13:53:16.448Z,15.30
2022-12-03T13:55:48.056Z,15.30
2022-12-03T13:58:16.486Z,15.30
2022-12-03T14:00:45.136Z,15.30
2022-12-03T14:03:13.583Z,15.30
2022-12-03T14:05:42.105Z,15.30
2022-12-03T14:08:11.977Z,15.30
2022-12-03T14:10:40.564Z,15.30
2022-12-03T14:13:08.906Z,15.30
2022-12-03T14:15:38.132Z,15.30
2022-12-03T14:18:06.490Z,15.30
2022-12-03T14:20:36.563Z,15.30
2022-12-03T14:23:04.869Z,15.30
2022-12-03T14:25:34.600Z,15.30
2022-12-03T14:28:03.286Z,15.30
2022-12-03T14:30:31.816Z,15.30
2022-12-03T14:33:00.248Z,15.30
2022-12-03T14:35:29.058Z,15.30
2022-12-03T14:37:57.744Z,15.30
2022-12-03T14:40:26.390Z,15.30
2022-12-03T14:42:56.270Z,15.30
2022-12-03T14:45:25.310Z,15.30
2022-12-03T14:47:53.621Z,15.30
2022-12-03T14:50:21.917Z,15.30
2022-12-03T14:52:50.238Z,15.30
2022-12-03T14:55:18.999Z,15.30
2022-12-03T14:57:47.291Z,15.40
2022-12-03T15:00:18.385Z,15.30
2022-12-03T15:02:46.689Z,15.30
2022-12-03T15:05:15.030Z,15.30
2022-12-03T15:07:43.380Z,15.30
2022-12-03T15:10:12.324Z,15.30
2022-12-03T15:12:40.663Z,15.30
2022-12-03T15:15:09.993Z,15.30
2022-12-03T15:17:39.723Z,15.30
2022-12-03T15:20:09.460Z,15.30
2022-12-03T15:22:37.703Z,15.30
2022-12-03T15:25:07.809Z,15.30
2022-12-03T15:27:37.350Z,15.30
2022-12-03T15:30:07.337Z,15.30
2022-12-03T15:32:35.931Z,15.30
2022-12-03T15:35:06.215Z,15.30
2022-12-03T15:37:34.484Z,15.30
2022-12-03T15:40:03.000Z,15.30
2022-12-03T15:42:31.515Z,15.30
2022-12-03T15:44:59.908Z,15.30
2022-12-03T15:47:28.362Z,15.30
2022-12-03T15:49:57.043Z,15.30
2022-12-03T15:52:26.843Z,15.30
2022-12-03T15:54:55.508Z,15.30
2022-12-03T15:57:23.854Z,15.30
2022-12-03T15:59:53.327Z,15.30
2022-12-03T16:02:21.843Z,15.30
2022-12-03T16:04:50.244Z,15.30
2022-12-03T16:07:18.594Z,15.30
2022-12-03T16:09:48.345Z,15.30
2022-12-03T16:12:16.809Z,15.20
2022-12-03T16:14:45.110Z,15.20
2022-12-03T16:17:13.515Z,15.30
2022-12-03T16:19:41.748Z,15.20
2022-12-03T16:22:10.291Z,15.20
2022-12-03T16:24:38.749Z,15.20
2022-12-03T16:27:08.638Z,15.20
2022-12-03T16:29:37.061Z,15.20
2022-12-03T16:32:05.480Z,15.20
2022-12-03T16:34:33.850Z,15.20
2022-12-03T16:37:02.205Z,15.20
2022-12-03T16:39:30.581Z,15.20
2022-12-03T16:41:58.795Z,15.20
2022-12-03T16:44:54.303Z,15.20
2022-12-03T16:47:23.634Z,15.20
2022-12-03T16:49:52.379Z,15.20
2022-12-03T16:52:20.991Z,15.20
2022-12-03T16:54:49.490Z,15.20
2022-12-03T16:57:17.840Z,15.20
2022-12-03T16:59:47.717Z,15.20
2022-12-03T17:02:16.113Z,15.20
2022-12-03T17:04:44.561Z,15.20
2022-12-03T17:07:12.818Z,15.20
2022-12-03T17:09:41.194Z,15.20
2022-12-03T17:12:09.552Z,15.20
2022-12-03T17:14:37.963Z,15.10
2022-12-03T17:17:07.635Z,15.20
2022-12-03T17:19:35.916Z,15.20
2022-12-03T17:22:04.282Z,15.20
2022-12-03T17:24:32.596Z,15.10
2022-12-03T17:27:00.883Z,15.20
2022-12-03T17:29:29.241Z,15.10
2022-12-03T17:31:57.667Z,15.20
2022-12-03T17:34:27.456Z,15.10
2022-12-03T17:36:55.769Z,15.10
2022-12-03T17:39:24.067Z,15.10
2022-12-03T17:41:52.340Z,15.10
2022-12-03T17:44:21.432Z,15.10
2022-12-03T17:46:50.006Z,15.10
2022-12-03T17:49:18.336Z,15.20
2022-12-03T17:51:48.023Z,15.10
2022-12-03T17:54:16.464Z,15.10
2022-12-03T17:56:44.879Z,15.10
2022-12-03T17:59:13.958Z,15.10
2022-12-03T18:01:43.833Z,15.10
2022-12-03T18:04:12.390Z,15.10
2022-12-03T18:06:40.887Z,15.10
2022-12-03T18:09:10.857Z,15.10
2022-12-03T18:11:39.111Z,15.10
2022-12-03T18:14:07.444Z,15.10
2022-12-03T18:16:35.845Z,15.10
2022-12-03T18:19:06.466Z,15.10
2022-12-03T18:21:35.811Z,15.10
2022-12-03T18:24:04.338Z,15.10
2022-12-03T18:26:34.283Z,15.10
2022-12-03T18:29:02.630Z,15.10
2022-12-03T18:31:31.216Z,15.10
2022-12-03T18:33:59.491Z,15.10
2022-12-03T18:36:32.570Z,15.10
2022-12-03T18:39:01.522Z,15.10
2022-12-03T18:41:29.932Z,15.00
2022-12-03T18:43:59.651Z,15.10
2022-12-03T18:49:16.246Z,15.10
2022-12-03T18:51:44.693Z,15.10
2022-12-03T18:54:14.398Z,15.10
2022-12-03T18:56:42.763Z,15.10
2022-12-03T18:59:12.377Z,15.10
2022-12-03T19:01:40.753Z,15.10
2022-12-03T19:04:10.996Z,15.10
2022-12-03T19:06:39.287Z,15.10
2022-12-03T19:09:07.559Z,15.10
2022-12-03T19:11:35.928Z,15.10
2022-12-03T19:14:04.223Z,15.10
2022-12-03T19:16:36.241Z,15.10
2022-12-03T19:19:04.808Z,15.10
2022-12-03T19:21:33.949Z,15.10
2022-12-03T19:26:54.567Z,15.10
2022-12-03T19:29:23.583Z,15.10
2022-12-03T19:31:53.798Z,15.10
2022-12-03T19:34:22.358Z,15.10
2022-12-03T19:36:50.654Z,15.20
2022-12-03T19:39:19.141Z,15.10
2022-12-03T19:41:47.607Z,15.20
2022-12-03T19:44:17.704Z,15.20
2022-12-03T19:46:46.505Z,15.20
2022-12-03T19:49:18.782Z,15.20
2022-12-03T19:51:47.302Z,15.20
2022-12-03T19:54:15.987Z,15.20
2022-12-03T19:56:44.796Z,15.20
2022-12-03T19:59:14.555Z,15.20
2022-12-03T20:01:43.541Z,15.20
2022-12-03T20:04:13.115Z,15.20
2022-12-03T20:06:42.905Z,15.20
2022-12-03T20:09:17.325Z,15.20
2022-12-03T20:11:46.509Z,15.20
2022-12-03T20:14:16.778Z,15.20
2022-12-03T20:16:46.131Z,15.20
2022-12-03T20:19:17.781Z,15.20
2022-12-03T20:21:47.615Z,15.10
2022-12-03T20:24:19.749Z,15.20
2022-12-03T20:26:48.478Z,15.10
2022-12-03T20:29:16.765Z,15.20
2022-12-03T20:31:45.401Z,15.20
2022-12-03T20:34:13.889Z,15.20
2022-12-03T20:36:44.309Z,15.10
2022-12-03T20:39:14.112Z,15.10
2022-12-03T20:41:42.553Z,15.10
2022-12-03T20:44:11.452Z,15.10
2022-12-03T20:46:39.898Z,15.10
2022-12-03T20:49:08.599Z,15.10
2022-12-03T20:51:37.193Z,15.10
2022-12-03T20:54:06.122Z,15.10
2022-12-03T20:56:39.411Z,15.20
2022-12-03T20:59:09.603Z,15.20
2022-12-03T21:01:38.550Z,15.20
2022-12-03T21:04:08.641Z,15.20
2022-12-03T21:06:38.551Z,15.20
2022-12-03T21:09:08.057Z,15.20
2022-12-03T21:11:42.785Z,15.20
2022-12-03T21:14:12.284Z,15.20
2022-12-03T21:19:30.926Z,15.30
2022-12-03T21:21:59.491Z,15.30
2022-12-03T21:24:28.126Z,15.30
2022-12-03T21:26:58.171Z,15.30
2022-12-03T21:29:26.676Z,15.40
2022-12-03T21:31:55.344Z,15.30
2022-12-03T21:34:23.711Z,15.40
2022-12-03T21:36:52.057Z,15.40
2022-12-03T21:39:20.457Z,15.40
2022-12-03T21:42:25.910Z,15.40
2022-12-03T21:44:39.729Z,15.40
2022-12-03T21:47:13.983Z,15.40
2022-12-03T21:49:43.473Z,15.40
2022-12-03T21:52:11.855Z,15.40
2022-12-03T21:54:40.155Z,15.40
2022-12-03T21:57:08.559Z,15.40
2022-12-03T21:59:36.832Z,15.40
2022-12-03T22:02:06.692Z,15.50
2022-12-03T22:04:35.132Z,15.40
2022-12-03T22:07:03.731Z,15.40
2022-12-03T22:09:33.124Z,15.40
2022-12-03T22:12:01.697Z,15.40
2022-12-03T22:14:30.136Z,15.40
2022-12-03T22:16:58.439Z,15.40
2022-12-03T22:19:28.754Z,15.50
2022-12-03T22:21:57.025Z,15.50
2022-12-03T22:24:25.331Z,15.40
2022-12-03T22:26:54.853Z,15.50
2022-12-03T22:29:23.481Z,15.50
2022-12-03T22:31:51.982Z,15.50
2022-12-03T22:34:20.374Z,15.50
2022-12-03T22:36:50.036Z,15.50
2022-12-03T22:39:18.340Z,15.50
2022-12-03T22:41:46.971Z,15.50
2022-12-03T22:44:15.568Z,15.50
2022-12-03T22:46:44.077Z,15.50
2022-12-03T22:49:14.002Z,15.50
2022-12-03T22:51:42.416Z,15.60
2022-12-03T22:54:13.040Z,15.60
2022-12-03T22:56:41.624Z,15.50
2022-12-03T22:59:10.305Z,15.60
2022-12-03T23:01:42.267Z,15.50
2022-12-03T23:04:12.876Z,15.60
2022-12-03T23:06:41.430Z,15.60
2022-12-03T23:09:10.278Z,15.60
2022-12-03T23:11:40.098Z,15.60
2022-12-03T23:14:08.437Z,15.60
2022-12-03T23:16:36.856Z,15.60
2022-12-03T23:19:06.400Z,15.60
2022-12-03T23:21:36.289Z,15.60
2022-12-03T23:24:06.101Z,15.60
2022-12-03T23:26:37.020Z,15.60
2022-12-03T23:29:08.652Z,15.60
2022-12-03T23:31:37.282Z,15.60
2022-12-03T23:34:05.944Z,15.60
2022-12-03T23:36:35.041Z,15.60
2022-12-03T23:39:03.468Z,15.50
2022-12-03T23:41:31.804Z,15.50
2022-12-03T23:44:00.092Z,15.50
2022-12-03T23:46:30.067Z,15.50
2022-12-03T23:49:00.308Z,15.50
2022-12-03T23:51:28.935Z,15.50
2022-12-03T23:53:57.566Z,15.50
2022-12-03T23:56:27.924Z,15.50
2022-12-03T23:58:57.253Z,15.50
